createdAt,value
2019-02-12T00:03:23.001Z,3.76
2019-02-12T00:08:31.300Z,3.78
2019-02-12T00:13:39.673Z,4.04
2019-02-12T00:18:47.851Z,3.40
2019-02-12T00:23:55.980Z,3.49
2019-02-12T00:29:04.378Z,3.33
2019-02-12T00:34:12.612Z,3.17
2019-02-12T00:39:21.177Z,3.37
2019-02-12T00:44:29.316Z,3.46
2019-02-12T00:49:37.574Z,3.39
2019-02-12T00:54:46.038Z,3.60
2019-02-12T00:59:54.310Z,3.41
2019-02-12T01:05:04.335Z,3.94
2019-02-12T01:10:10.413Z,3.03
2019-02-12T01:15:18.576Z,3.01
2019-02-12T01:20:26.895Z,2.71
2019-02-12T01:25:35.113Z,3.30
2019-02-12T01:30:43.312Z,3.39
2019-02-12T01:35:51.754Z,4.16
2019-02-12T01:41:00.017Z,3.56
2019-02-12T01:46:09.019Z,3.62
2019-02-12T01:51:17.197Z,3.31
2019-02-12T01:56:25.236Z,3.85
2019-02-12T02:01:34.878Z,3.38
2019-02-12T02:06:43.237Z,3.67
2019-02-12T02:11:51.329Z,2.94
2019-02-12T02:16:59.572Z,3.28
2019-02-12T02:22:07.838Z,3.37
2019-02-12T02:27:15.969Z,3.37
2019-02-12T02:32:24.280Z,3.00
2019-02-12T02:37:32.650Z,3.03
2019-02-12T02:42:41.445Z,3.18
2019-02-12T02:47:49.632Z,3.09
2019-02-12T02:52:58.101Z,3.27
2019-02-12T02:58:06.325Z,3.21
2019-02-12T03:03:14.669Z,3.22
2019-02-12T03:08:23.234Z,3.25
2019-02-12T03:13:31.366Z,3.23
2019-02-12T03:18:39.985Z,2.95
2019-02-12T03:23:48.328Z,2.91
2019-02-12T03:28:56.716Z,2.71
2019-02-12T03:34:04.986Z,2.92
2019-02-12T03:39:12.986Z,3.22
2019-02-12T03:44:21.330Z,2.85
2019-02-12T03:49:29.522Z,3.04
2019-02-12T03:54:37.798Z,2.81
2019-02-12T03:59:46.053Z,2.95
2019-02-12T04:04:54.229Z,3.47
2019-02-12T04:10:02.550Z,3.33
2019-02-12T04:15:10.712Z,2.99
2019-02-12T04:20:19.190Z,3.58
2019-02-12T04:25:27.470Z,3.66
2019-02-12T04:30:35.854Z,2.96
2019-02-12T04:35:44.313Z,2.97
2019-02-12T04:40:52.552Z,2.94
2019-02-12T04:46:01.295Z,2.64
2019-02-12T04:51:09.464Z,3.30
2019-02-12T04:56:17.789Z,3.59
2019-02-12T05:01:26.276Z,3.04
2019-02-12T05:06:34.398Z,3.07
2019-02-12T05:11:42.642Z,3.04
2019-02-12T05:16:50.917Z,2.82
2019-02-12T05:21:59.185Z,3.25
2019-02-12T05:27:07.611Z,2.92
2019-02-12T05:32:15.732Z,2.83
2019-02-12T05:37:23.942Z,3.09
2019-02-12T05:42:32.692Z,3.27
2019-02-12T05:47:40.930Z,3.49
2019-02-12T05:52:54.423Z,4.48
2019-02-12T05:57:56.981Z,3.45
2019-02-12T06:03:05.237Z,3.94
2019-02-12T06:08:13.574Z,3.78
2019-02-12T06:13:21.745Z,3.83
2019-02-12T06:18:30.384Z,4.28
2019-02-12T06:23:38.592Z,4.38
2019-02-12T06:28:46.876Z,4.06
2019-02-12T06:33:55.107Z,3.91
2019-02-12T06:39:03.446Z,4.03
2019-02-12T06:44:11.688Z,4.40
2019-02-12T06:49:19.940Z,3.86
2019-02-12T06:54:28.274Z,4.10
2019-02-12T06:59:36.528Z,4.11
2019-02-12T07:04:44.761Z,4.00
2019-02-12T07:09:53.370Z,3.83
2019-02-12T07:14:53.421Z,4.02
2019-02-12T07:20:01.776Z,4.22
2019-02-12T07:25:10.345Z,3.62
2019-02-12T07:30:18.698Z,4.08
2019-02-12T07:35:26.794Z,4.12
2019-02-12T07:40:35.225Z,4.08
2019-02-12T07:45:43.435Z,3.73
2019-02-12T07:50:51.637Z,3.89
2019-02-12T07:55:59.785Z,4.18
2019-02-12T08:01:08.540Z,4.08
2019-02-12T08:06:16.536Z,3.89
2019-02-12T08:11:24.909Z,4.78
2019-02-12T08:16:32.940Z,12.25
2019-02-12T08:21:41.342Z,4.43
2019-02-12T08:26:49.607Z,4.08
2019-02-12T08:31:57.911Z,4.47
2019-02-12T08:37:05.981Z,4.46
2019-02-12T08:42:14.129Z,4.02
2019-02-12T08:47:22.288Z,4.44
2019-02-12T08:52:30.542Z,4.31
2019-02-12T08:57:39.038Z,4.85
2019-02-12T09:02:47.331Z,5.09
2019-02-12T09:07:55.822Z,4.83
2019-02-12T09:13:04.133Z,4.32
2019-02-12T09:18:12.387Z,4.55
2019-02-12T09:33:37.086Z,4.27
2019-02-12T09:43:53.746Z,5.23
2019-02-12T09:49:01.933Z,5.06
2019-02-12T10:14:43.101Z,5.96
2019-02-12T10:19:51.229Z,5.84
2019-02-12T10:24:59.484Z,5.78
2019-02-12T10:35:15.856Z,4.75
2019-02-12T10:45:32.449Z,3.90
2019-02-12T10:50:40.746Z,4.45
2019-02-12T10:55:41.310Z,4.09
2019-02-12T11:00:49.568Z,3.99
2019-02-12T11:05:57.725Z,4.43
2019-02-12T11:31:39.853Z,4.19
2019-02-12T11:36:48.093Z,4.30
2019-02-12T11:41:56.273Z,3.67
2019-02-12T11:47:04.654Z,3.92
2019-02-12T11:52:12.849Z,3.70
2019-02-12T11:57:21.089Z,3.99
2019-02-12T12:02:29.291Z,3.70
2019-02-12T12:17:54.552Z,3.00
2019-02-12T12:23:02.708Z,3.52
2019-02-12T12:28:11.028Z,3.41
2019-02-12T12:33:19.080Z,3.46
2019-02-12T12:38:27.190Z,2.80
2019-02-12T12:43:35.277Z,3.30
2019-02-12T12:48:43.724Z,3.26
2019-02-12T12:53:51.838Z,2.75
2019-02-12T12:59:00.269Z,2.84
2019-02-12T13:04:09.207Z,2.63
2019-02-12T13:09:17.473Z,2.69
2019-02-12T13:14:25.632Z,2.70
2019-02-12T13:24:42.133Z,2.74
2019-02-12T13:29:50.337Z,2.78
2019-02-12T13:34:58.600Z,2.33
2019-02-12T13:45:14.980Z,2.73
2019-02-12T13:50:23.090Z,2.89
2019-02-12T13:55:32.157Z,2.44
2019-02-12T14:00:40.457Z,2.56
2019-02-12T14:16:05.599Z,3.40
2019-02-12T14:21:13.789Z,3.47
2019-02-12T14:31:30.281Z,3.87
2019-02-12T14:36:38.472Z,4.21
2019-02-12T14:41:46.797Z,2.84
2019-02-12T14:46:55.057Z,3.61
2019-02-12T14:52:03.272Z,2.89
2019-02-12T14:57:11.355Z,3.75
2019-02-12T15:07:27.920Z,3.75
2019-02-12T15:12:36.165Z,3.51
2019-02-12T15:22:52.652Z,3.26
2019-02-12T15:28:00.954Z,3.50
2019-02-12T15:38:17.810Z,4.11
2019-02-12T15:43:26.051Z,3.77
2019-02-12T15:48:34.474Z,4.53
2019-02-12T15:58:53.654Z,5.70
2019-02-12T16:04:00.410Z,4.26
2019-02-12T16:29:43.501Z,3.53
2019-02-12T16:34:52.040Z,4.00
2019-02-12T16:40:00.633Z,4.25
2019-02-12T16:45:08.865Z,5.32
2019-02-12T17:00:34.394Z,4.63
2019-02-12T17:10:52.356Z,4.59
2019-02-12T17:26:17.948Z,7.03
2019-02-12T17:46:52.175Z,5.34
2019-02-12T18:02:17.845Z,8.81
2019-02-12T18:12:34.886Z,7.29
2019-02-12T18:33:09.126Z,9.41
2019-02-12T18:38:17.574Z,9.01
2019-02-12T18:43:26.078Z,9.00
2019-02-12T18:53:43.106Z,8.86
2019-02-12T18:58:51.680Z,9.47
2019-02-12T19:03:59.953Z,9.73
2019-02-12T19:09:08.629Z,10.67
2019-02-12T19:24:34.210Z,13.03
2019-02-12T19:29:42.568Z,13.17
2019-02-12T19:34:50.803Z,14.83
2019-02-12T19:40:00.358Z,14.73
2019-02-12T19:45:09.770Z,14.34
2019-02-12T19:50:18.595Z,14.23
2019-02-12T19:55:26.873Z,17.11
2019-02-12T20:00:35.155Z,16.92
2019-02-12T20:05:43.508Z,15.27
2019-02-12T20:10:51.783Z,16.50
2019-02-12T20:16:00.212Z,16.99
2019-02-12T20:21:08.423Z,16.61
2019-02-12T20:26:16.533Z,17.59
2019-02-12T20:31:24.771Z,17.63
2019-02-12T20:36:32.821Z,16.48
2019-02-12T20:41:40.918Z,17.66
2019-02-12T20:46:49.510Z,18.04
2019-02-12T20:51:57.768Z,17.81
2019-02-12T20:57:14.559Z,18.38
2019-02-12T21:02:14.276Z,18.36
2019-02-12T21:07:22.422Z,18.53
2019-02-12T21:12:30.705Z,19.37
2019-02-12T21:17:38.821Z,19.32
2019-02-12T21:22:47.121Z,19.82
2019-02-12T21:27:55.346Z,20.48
2019-02-12T21:33:03.461Z,20.90
2019-02-12T21:38:11.677Z,21.30
2019-02-12T21:43:19.904Z,21.18
2019-02-12T21:48:28.045Z,20.32
2019-02-12T21:53:36.424Z,21.06
2019-02-12T21:58:45.061Z,21.68
2019-02-12T22:03:53.269Z,20.19
2019-02-12T22:09:01.456Z,22.04
2019-02-12T22:14:09.855Z,21.79
2019-02-12T22:19:17.959Z,22.36
2019-02-12T22:24:26.167Z,21.66
2019-02-12T22:29:34.304Z,21.29
2019-02-12T22:34:42.599Z,22.45
2019-02-12T22:39:50.760Z,22.46
2019-02-12T22:44:59.028Z,22.37
2019-02-12T22:50:08.971Z,23.37
2019-02-12T22:55:07.841Z,24.42
2019-02-12T23:00:16.259Z,24.97
2019-02-12T23:05:24.739Z,25.44
2019-02-12T23:10:33.013Z,25.42
2019-02-12T23:15:41.355Z,25.45
2019-02-12T23:20:49.934Z,27.19
2019-02-12T23:25:58.154Z,27.45
2019-02-12T23:31:06.612Z,27.06
2019-02-12T23:36:15.035Z,27.84
2019-02-12T23:41:23.518Z,26.56
2019-02-12T23:46:31.849Z,27.41
2019-02-12T23:51:40.037Z,27.80
2019-02-12T23:56:48.260Z,27.82
